createdAt,value
2022-10-18T00:01:09.149Z,4.98
2022-10-18T00:06:14.816Z,4.94
2022-10-18T00:08:42.683Z,4.91
2022-10-18T00:11:10.709Z,4.89
2022-10-18T00:13:38.828Z,4.85
2022-10-18T00:16:12.354Z,4.82
2022-10-18T00:18:41.109Z,4.79
2022-10-18T00:21:14.310Z,4.75
2022-10-18T00:23:42.795Z,4.71
2022-10-18T00:26:14.753Z,4.68
2022-10-18T00:28:43.841Z,4.65
2022-10-18T00:31:18.017Z,4.62
2022-10-18T00:33:50.136Z,4.58
2022-10-18T00:36:18.208Z,4.55
2022-10-18T00:38:47.221Z,4.51
2022-10-18T00:41:18.961Z,4.48
2022-10-18T00:43:51.287Z,4.44
2022-10-18T00:46:19.613Z,4.42
2022-10-18T00:48:48.563Z,4.39
2022-10-18T00:51:20.460Z,4.37
2022-10-18T00:53:49.557Z,4.33
2022-10-18T00:56:18.099Z,4.30
2022-10-18T00:58:48.157Z,4.28
2022-10-18T01:01:16.263Z,4.26
2022-10-18T01:03:44.607Z,4.25
2022-10-18T01:06:12.620Z,4.23
2022-10-18T01:08:45.769Z,4.21
2022-10-18T01:11:22.648Z,4.20
2022-10-18T01:14:22.668Z,4.19
2022-10-18T01:17:00.461Z,4.18
2022-10-18T01:19:49.533Z,4.17
2022-10-18T01:22:33.987Z,4.14
2022-10-18T01:25:26.442Z,4.11
2022-10-18T01:28:31.637Z,4.08
2022-10-18T01:31:18.634Z,4.04
2022-10-18T01:33:52.160Z,4.02
2022-10-18T01:36:33.107Z,3.98
2022-10-18T01:39:06.279Z,3.95
2022-10-18T01:41:38.755Z,3.93
2022-10-18T01:44:09.604Z,3.90
2022-10-18T01:46:39.903Z,3.87
2022-10-18T01:49:07.969Z,3.84
2022-10-18T01:51:36.342Z,3.83
2022-10-18T01:54:05.110Z,3.81
2022-10-18T01:57:24.403Z,3.79
2022-10-18T02:00:00.787Z,3.76
2022-10-18T02:02:59.432Z,3.73
2022-10-18T02:05:40.345Z,3.71
2022-10-18T02:08:23.151Z,3.70
2022-10-18T02:10:57.364Z,3.68
2022-10-18T02:13:29.396Z,3.65
2022-10-18T02:16:03.831Z,3.63
2022-10-18T02:18:40.015Z,3.60
2022-10-18T02:21:11.617Z,3.58
2022-10-18T02:23:39.902Z,3.56
2022-10-18T02:26:08.123Z,3.54
2022-10-18T02:28:36.216Z,3.52
2022-10-18T02:31:31.083Z,3.50
2022-10-18T02:34:10.180Z,3.48
2022-10-18T02:36:46.490Z,3.46
2022-10-18T02:39:30.534Z,3.43
2022-10-18T02:41:59.850Z,3.40
2022-10-18T02:44:27.703Z,3.38
2022-10-18T02:46:55.755Z,3.35
2022-10-18T02:49:23.748Z,3.33
2022-10-18T02:51:51.928Z,3.30
2022-10-18T02:54:20.198Z,3.28
2022-10-18T02:56:48.269Z,3.25
2022-10-18T02:59:17.059Z,3.23
2022-10-18T03:01:45.237Z,3.22
2022-10-18T03:04:13.532Z,3.20
2022-10-18T03:06:41.582Z,3.19
2022-10-18T03:09:10.162Z,3.17
2022-10-18T03:11:38.239Z,3.16
2022-10-18T03:14:06.205Z,3.14
2022-10-18T03:16:34.379Z,3.14
2022-10-18T03:19:02.418Z,3.13
2022-10-18T03:21:30.522Z,3.12
2022-10-18T03:23:59.775Z,3.11
2022-10-18T03:26:27.693Z,3.10
2022-10-18T03:28:55.923Z,3.09
2022-10-18T03:31:23.943Z,3.08
2022-10-18T03:33:52.010Z,3.06
2022-10-18T03:36:23.061Z,3.04
2022-10-18T03:38:51.020Z,3.04
2022-10-18T03:41:20.717Z,3.03
2022-10-18T03:43:48.881Z,3.01
2022-10-18T03:46:17.190Z,2.99
2022-10-18T03:48:45.060Z,2.98
2022-10-18T03:51:13.122Z,2.97
2022-10-18T03:53:40.957Z,2.96
2022-10-18T03:56:08.855Z,2.94
2022-10-18T03:58:36.860Z,2.94
2022-10-18T04:01:04.899Z,2.93
2022-10-18T04:03:32.819Z,2.92
2022-10-18T04:06:00.941Z,2.91
2022-10-18T04:08:29.555Z,2.90
2022-10-18T04:10:57.617Z,2.89
2022-10-18T04:13:25.497Z,2.88
2022-10-18T04:15:53.442Z,2.87
2022-10-18T04:18:21.406Z,2.86
2022-10-18T04:20:49.288Z,2.84
2022-10-18T04:23:17.268Z,2.82
2022-10-18T04:25:45.213Z,2.81
2022-10-18T04:28:13.184Z,2.79
2022-10-18T04:30:41.049Z,2.79
2022-10-18T04:33:09.013Z,2.78
2022-10-18T04:35:37.089Z,2.77
2022-10-18T04:38:04.958Z,2.75
2022-10-18T04:40:33.030Z,2.74
2022-10-18T04:43:01.036Z,2.73
2022-10-18T04:45:29.374Z,2.73
2022-10-18T04:47:57.445Z,2.73
2022-10-18T04:50:25.415Z,2.73
2022-10-18T04:52:53.810Z,2.73
2022-10-18T04:55:21.711Z,2.73
2022-10-18T04:57:49.686Z,2.73
2022-10-18T05:00:17.805Z,2.74
2022-10-18T05:02:45.773Z,2.74
2022-10-18T05:05:14.415Z,2.76
2022-10-18T05:07:42.637Z,2.77
2022-10-18T05:10:11.118Z,2.79
2022-10-18T05:12:39.188Z,2.81
2022-10-18T05:15:07.670Z,2.83
2022-10-18T05:17:36.101Z,2.86
2022-10-18T05:20:04.940Z,2.89
2022-10-18T05:22:33.313Z,2.94
2022-10-18T05:25:01.576Z,2.99
2022-10-18T05:27:29.956Z,3.05
2022-10-18T05:30:00.033Z,3.11
2022-10-18T05:32:31.555Z,3.18
2022-10-18T05:34:59.811Z,3.29
2022-10-18T05:37:28.520Z,3.40
2022-10-18T05:39:56.657Z,3.52
2022-10-18T05:42:24.934Z,3.68
2022-10-18T05:44:53.109Z,3.85
2022-10-18T05:47:21.384Z,4.11
2022-10-18T05:49:49.545Z,4.44
2022-10-18T05:52:17.834Z,4.72
2022-10-18T05:54:45.907Z,4.97
2022-10-18T05:57:13.977Z,5.51
2022-10-18T05:59:41.948Z,6.17
2022-10-18T06:02:12.108Z,6.53
2022-10-18T06:04:40.041Z,6.66
2022-10-18T06:07:12.206Z,6.72
2022-10-18T06:09:40.481Z,6.78
2022-10-18T06:12:09.167Z,6.84
2022-10-18T06:14:37.653Z,6.90
2022-10-18T06:17:05.926Z,6.98
2022-10-18T06:19:33.813Z,7.05
2022-10-18T06:22:02.081Z,7.15
2022-10-18T06:24:30.042Z,7.25
2022-10-18T06:26:58.675Z,7.38
2022-10-18T06:29:26.819Z,7.57
2022-10-18T06:31:55.075Z,7.84
2022-10-18T06:34:23.046Z,8.43
2022-10-18T06:36:56.418Z,9.14
2022-10-18T06:39:26.563Z,9.57
2022-10-18T06:41:54.745Z,10.23
2022-10-18T06:44:23.010Z,11.20
2022-10-18T06:46:52.007Z,11.57
2022-10-18T06:49:20.084Z,11.65
2022-10-18T06:51:48.220Z,11.65
2022-10-18T06:54:18.333Z,11.65
2022-10-18T06:56:46.979Z,11.75
2022-10-18T06:59:15.340Z,11.94
2022-10-18T07:01:43.909Z,12.18
2022-10-18T07:04:12.081Z,12.70
2022-10-18T07:06:40.164Z,13.42
2022-10-18T07:09:08.240Z,14.43
2022-10-18T07:11:36.207Z,15.69
2022-10-18T07:14:05.042Z,17.46
2022-10-18T07:16:34.520Z,19.36
2022-10-18T07:19:02.698Z,21.15
2022-10-18T07:21:31.570Z,22.87
2022-10-18T07:23:59.521Z,24.50
2022-10-18T07:26:30.336Z,26.04
2022-10-18T07:29:07.851Z,27.51
2022-10-18T07:31:38.546Z,28.88
2022-10-18T07:34:08.015Z,30.10
2022-10-18T07:36:35.893Z,31.24
2022-10-18T07:39:04.922Z,32.14
2022-10-18T07:41:34.269Z,33.00
2022-10-18T07:44:03.159Z,33.76
2022-10-18T07:46:31.434Z,34.44
2022-10-18T07:48:59.814Z,34.82
2022-10-18T07:51:28.294Z,35.32
2022-10-18T07:53:56.365Z,36.09
2022-10-18T07:56:24.443Z,36.96
2022-10-18T07:58:54.257Z,37.88
2022-10-18T08:01:24.127Z,38.74
2022-10-18T08:03:53.161Z,39.38
2022-10-18T08:06:22.952Z,39.90
2022-10-18T08:08:52.479Z,40.32
2022-10-18T08:11:23.574Z,40.73
2022-10-18T08:13:53.129Z,41.17
2022-10-18T08:16:28.996Z,41.52
2022-10-18T08:19:00.455Z,41.80
2022-10-18T08:21:28.610Z,42.10
2022-10-18T08:23:56.613Z,42.59
2022-10-18T08:26:24.703Z,43.04
2022-10-18T08:28:58.544Z,43.36
2022-10-18T08:31:37.857Z,43.65
2022-10-18T08:34:05.876Z,43.90
2022-10-18T08:36:34.051Z,44.06
2022-10-18T08:39:03.348Z,43.97
2022-10-18T08:41:44.317Z,44.06
2022-10-18T08:44:23.037Z,44.32
2022-10-18T08:47:06.774Z,44.49
2022-10-18T08:49:46.775Z,44.74
2022-10-18T08:52:58.523Z,44.99
2022-10-18T08:55:36.430Z,45.25
2022-10-18T08:58:17.298Z,45.57
2022-10-18T09:00:58.988Z,45.82
2022-10-18T09:03:47.812Z,45.90
2022-10-18T09:06:43.172Z,46.05
2022-10-18T09:09:32.951Z,46.19
2022-10-18T09:12:26.003Z,46.13
2022-10-18T09:15:18.545Z,46.02
2022-10-18T09:18:14.064Z,45.86
2022-10-18T09:21:00.466Z,45.64
2022-10-18T09:23:46.922Z,45.47
2022-10-18T09:26:20.059Z,45.47
2022-10-18T09:29:09.780Z,45.43
2022-10-18T09:31:50.708Z,45.19
2022-10-18T09:34:29.029Z,44.70
2022-10-18T09:36:58.030Z,43.86
2022-10-18T09:39:31.452Z,42.52
2022-10-18T09:42:12.180Z,40.96
2022-10-18T09:44:45.783Z,39.41
2022-10-18T09:47:37.151Z,37.95
2022-10-18T09:50:42.756Z,36.49
2022-10-18T09:53:20.445Z,35.00
2022-10-18T09:56:06.362Z,33.77
2022-10-18T09:58:46.638Z,32.74
2022-10-18T10:01:21.371Z,31.87
2022-10-18T10:03:49.704Z,31.05
2022-10-18T10:06:29.654Z,30.33
2022-10-18T10:09:00.994Z,29.68
2022-10-18T10:11:34.915Z,29.09
2022-10-18T10:14:10.381Z,28.55
2022-10-18T10:16:51.434Z,28.21
2022-10-18T10:19:37.332Z,27.91
2022-10-18T10:22:14.556Z,27.57
2022-10-18T10:25:00.809Z,27.21
2022-10-18T10:27:32.387Z,26.91
2022-10-18T10:30:07.355Z,26.67
2022-10-18T10:32:48.106Z,26.41
2022-10-18T10:35:35.499Z,26.10
2022-10-18T10:38:24.657Z,25.79
2022-10-18T10:40:53.461Z,25.62
2022-10-18T10:43:37.610Z,25.50
2022-10-18T10:46:19.340Z,25.41
2022-10-18T10:49:27.831Z,25.36
2022-10-18T10:52:08.235Z,25.30
2022-10-18T10:54:39.220Z,25.22
2022-10-18T10:57:16.599Z,25.18
2022-10-18T10:59:48.053Z,25.13
2022-10-18T11:02:21.657Z,25.04
2022-10-18T11:04:55.259Z,24.99
2022-10-18T11:07:41.152Z,25.00
2022-10-18T11:10:26.871Z,24.99
2022-10-18T11:13:05.551Z,24.95
2022-10-18T11:15:36.590Z,24.94
2022-10-18T11:18:10.922Z,24.99
2022-10-18T11:20:43.936Z,25.09
2022-10-18T11:23:14.837Z,25.24
2022-10-18T11:26:05.029Z,25.48
2022-10-18T11:29:07.172Z,25.96
2022-10-18T11:32:07.681Z,26.92
2022-10-18T11:34:47.997Z,28.27
2022-10-18T11:37:28.208Z,29.50
2022-10-18T11:40:17.721Z,30.81
2022-10-18T11:43:12.772Z,32.09
2022-10-18T11:46:00.661Z,33.26
2022-10-18T11:49:07.247Z,34.36
2022-10-18T11:52:06.612Z,35.45
2022-10-18T11:54:44.995Z,36.32
2022-10-18T11:57:27.979Z,36.96
2022-10-18T12:00:08.544Z,37.37
2022-10-18T12:03:14.431Z,37.68
2022-10-18T12:05:46.724Z,38.16
2022-10-18T12:08:21.406Z,38.55
2022-10-18T12:11:04.471Z,38.95
2022-10-18T12:13:50.314Z,39.33
2022-10-18T12:16:38.901Z,39.51
2022-10-18T12:19:23.571Z,39.63
2022-10-18T12:22:13.989Z,39.70
2022-10-18T12:24:42.489Z,39.71
2022-10-18T12:27:14.577Z,39.66
2022-10-18T12:29:51.588Z,39.51
2022-10-18T12:32:27.210Z,39.23
2022-10-18T12:35:01.375Z,38.88
2022-10-18T12:37:51.199Z,38.49
2022-10-18T12:40:46.951Z,38.02
2022-10-18T12:43:41.718Z,37.70
2022-10-18T12:46:13.702Z,37.38
2022-10-18T12:48:48.780Z,37.00
2022-10-18T12:51:20.030Z,36.56
2022-10-18T12:53:55.055Z,36.05
2022-10-18T12:56:29.326Z,35.52
2022-10-18T12:59:15.569Z,34.91
2022-10-18T13:01:55.599Z,34.05
2022-10-18T13:04:32.697Z,33.11
2022-10-18T13:07:08.356Z,32.24
2022-10-18T13:10:03.049Z,31.44
2022-10-18T13:12:43.815Z,30.65
2022-10-18T13:15:47.253Z,29.90
2022-10-18T13:18:22.481Z,29.11
2022-10-18T13:21:11.059Z,28.41
2022-10-18T13:23:41.950Z,27.74
2022-10-18T13:26:38.060Z,27.16
2022-10-18T13:29:36.972Z,26.57
2022-10-18T13:34:48.271Z,25.62
2022-10-18T13:37:16.329Z,25.27
2022-10-18T13:39:45.254Z,24.96
2022-10-18T13:42:16.133Z,24.67
2022-10-18T13:44:45.064Z,24.39
2022-10-18T13:47:33.994Z,24.11
2022-10-18T13:50:22.558Z,23.84
2022-10-18T13:53:10.619Z,23.54
2022-10-18T13:55:57.533Z,23.17
2022-10-18T13:58:49.244Z,22.90
2022-10-18T14:02:00.308Z,22.61
2022-10-18T14:04:46.979Z,22.31
2022-10-18T14:07:19.441Z,22.03
2022-10-18T14:09:59.495Z,21.79
2022-10-18T14:12:47.885Z,21.51
2022-10-18T14:15:26.345Z,21.23
2022-10-18T14:18:02.281Z,20.98
2022-10-18T14:21:01.534Z,20.73
2022-10-18T14:23:42.062Z,20.47
2022-10-18T14:26:19.039Z,20.23
2022-10-18T14:29:03.225Z,19.99
2022-10-18T14:31:31.776Z,19.75
2022-10-18T14:34:00.174Z,19.52
2022-10-18T14:36:35.720Z,19.29
2022-10-18T14:39:07.810Z,19.06
2022-10-18T14:41:41.266Z,18.86
2022-10-18T14:44:29.833Z,18.64
2022-10-18T14:47:03.842Z,18.40
2022-10-18T14:49:32.038Z,18.19
2022-10-18T14:52:01.231Z,17.98
2022-10-18T14:54:37.987Z,17.78
2022-10-18T14:57:07.500Z,17.57
2022-10-18T14:59:59.838Z,17.37
2022-10-18T15:02:30.727Z,17.17
2022-10-18T15:05:19.957Z,16.99
2022-10-18T15:07:50.334Z,16.79
2022-10-18T15:10:23.406Z,16.60
2022-10-18T15:13:09.293Z,16.40
2022-10-18T15:15:39.591Z,16.19
2022-10-18T15:18:15.937Z,16.01
2022-10-18T15:20:43.843Z,15.83
2022-10-18T15:23:38.799Z,15.63
2022-10-18T15:26:13.218Z,15.43
2022-10-18T15:28:50.236Z,15.24
2022-10-18T15:31:27.861Z,15.06
2022-10-18T15:34:10.825Z,14.89
2022-10-18T15:36:38.844Z,14.71
2022-10-18T15:39:13.427Z,14.55
2022-10-18T15:41:49.065Z,14.39
2022-10-18T15:44:51.034Z,14.23
2022-10-18T15:47:21.778Z,14.05
2022-10-18T15:49:51.329Z,13.90
2022-10-18T15:52:39.511Z,13.76
2022-10-18T15:55:46.376Z,13.61
2022-10-18T15:58:21.469Z,13.44
2022-10-18T16:00:51.345Z,13.30
2022-10-18T16:03:22.387Z,13.18
2022-10-18T16:05:56.376Z,13.04
2022-10-18T16:08:28.913Z,12.90
2022-10-18T16:10:58.995Z,12.78
2022-10-18T16:13:27.578Z,12.66
2022-10-18T16:15:59.748Z,12.54
2022-10-18T16:18:28.229Z,12.43
2022-10-18T16:20:56.812Z,12.33
2022-10-18T16:23:28.717Z,12.23
2022-10-18T16:25:57.284Z,12.13
2022-10-18T16:28:26.684Z,12.02
2022-10-18T16:31:02.166Z,11.93
2022-10-18T16:33:31.098Z,11.84
2022-10-18T16:35:59.171Z,11.73
2022-10-18T16:38:32.637Z,11.65
2022-10-18T16:41:04.977Z,11.56
2022-10-18T16:43:34.777Z,11.48
2022-10-18T16:46:04.696Z,11.42
2022-10-18T16:48:33.267Z,11.35
2022-10-18T16:51:01.735Z,11.28
2022-10-18T16:53:29.682Z,11.21
2022-10-18T16:56:00.553Z,11.15
2022-10-18T16:58:30.328Z,11.10
2022-10-18T17:01:01.025Z,11.03
2022-10-18T17:03:31.617Z,10.96
2022-10-18T17:05:59.589Z,10.89
2022-10-18T17:08:28.328Z,10.81
2022-10-18T17:10:59.479Z,10.72
2022-10-18T17:13:27.645Z,10.62
2022-10-18T17:15:55.868Z,10.53
2022-10-18T17:18:30.577Z,10.46
2022-10-18T17:21:02.872Z,10.39
2022-10-18T17:23:31.246Z,10.32
2022-10-18T17:26:08.658Z,10.25
2022-10-18T17:28:43.631Z,10.16
2022-10-18T17:31:14.536Z,10.09
2022-10-18T17:33:42.838Z,10.03
2022-10-18T17:36:11.292Z,9.97
2022-10-18T17:38:39.221Z,9.93
2022-10-18T17:41:11.418Z,9.88
2022-10-18T17:46:14.820Z,9.78
2022-10-18T17:48:43.915Z,9.75
2022-10-18T17:51:14.886Z,9.72
2022-10-18T17:53:43.028Z,9.71
2022-10-18T17:56:12.125Z,9.69
2022-10-18T17:58:43.277Z,9.67
2022-10-18T18:01:15.749Z,9.65
2022-10-18T18:03:44.075Z,9.64
2022-10-18T18:06:19.704Z,9.63
2022-10-18T18:08:49.279Z,9.62
2022-10-18T18:11:18.583Z,9.58
2022-10-18T18:13:46.446Z,9.56
2022-10-18T18:16:16.054Z,9.52
2022-10-18T18:18:48.806Z,9.48
2022-10-18T18:21:17.444Z,9.45
2022-10-18T18:23:46.230Z,9.42
2022-10-18T18:26:15.409Z,9.39
2022-10-18T18:28:43.823Z,9.37
2022-10-18T18:31:24.982Z,9.34
2022-10-18T18:33:55.717Z,9.31
2022-10-18T18:36:29.017Z,9.28
2022-10-18T18:38:57.955Z,9.21
2022-10-18T18:41:28.231Z,9.16
2022-10-18T18:43:59.013Z,9.10
2022-10-18T18:46:30.020Z,9.05
2022-10-18T18:48:58.473Z,8.99
2022-10-18T18:51:26.751Z,8.94
2022-10-18T18:53:55.336Z,8.88
2022-10-18T18:56:26.179Z,8.81
2022-10-18T18:58:55.061Z,8.76
2022-10-18T19:01:25.577Z,8.70
2022-10-18T19:03:55.652Z,8.65
2022-10-18T19:06:30.727Z,8.59
2022-10-18T19:09:02.814Z,8.54
2022-10-18T19:11:37.915Z,8.50
2022-10-18T19:14:08.416Z,8.45
2022-10-18T19:16:39.234Z,8.40
2022-10-18T19:19:11.706Z,8.35
2022-10-18T19:21:48.258Z,8.32
2022-10-18T19:24:16.227Z,8.27
2022-10-18T19:26:53.104Z,8.22
2022-10-18T19:29:29.137Z,8.18
2022-10-18T19:31:59.901Z,8.13
2022-10-18T19:34:29.391Z,8.08
2022-10-18T19:36:58.091Z,8.04
2022-10-18T19:39:31.725Z,8.00
2022-10-18T19:42:03.346Z,7.96
2022-10-18T19:44:33.761Z,7.91
2022-10-18T19:47:03.188Z,7.87
2022-10-18T19:49:31.250Z,7.83
2022-10-18T19:51:59.219Z,7.80
2022-10-18T19:54:27.189Z,7.78
2022-10-18T19:56:55.373Z,7.77
2022-10-18T19:59:24.260Z,7.75
2022-10-18T20:01:52.240Z,7.73
2022-10-18T20:04:20.299Z,7.72
2022-10-18T20:06:48.340Z,7.69
2022-10-18T20:09:19.670Z,7.67
2022-10-18T20:11:49.025Z,7.64
2022-10-18T20:14:16.918Z,7.59
2022-10-18T20:16:44.913Z,7.55
2022-10-18T20:19:12.929Z,7.51
2022-10-18T20:21:40.895Z,7.48
2022-10-18T20:24:09.536Z,7.46
2022-10-18T20:26:37.786Z,7.44
2022-10-18T20:29:07.565Z,7.43
2022-10-18T20:31:38.465Z,7.41
2022-10-18T20:34:10.693Z,7.40
2022-10-18T20:36:39.672Z,7.41
2022-10-18T20:39:08.277Z,7.40
2022-10-18T20:41:38.891Z,7.41
2022-10-18T20:44:11.935Z,7.40
2022-10-18T20:46:40.663Z,7.39
2022-10-18T20:49:12.757Z,7.37
2022-10-18T20:51:41.109Z,7.35
2022-10-18T20:54:10.493Z,7.33
2022-10-18T20:56:39.223Z,7.31
2022-10-18T20:59:09.904Z,7.30
2022-10-18T21:01:39.727Z,7.28
2022-10-18T21:04:09.775Z,7.27
2022-10-18T21:06:41.045Z,7.25
2022-10-18T21:09:12.669Z,7.22
2022-10-18T21:11:43.061Z,7.20
2022-10-18T21:14:13.782Z,7.20
2022-10-18T21:16:42.968Z,7.18
2022-10-18T21:19:15.012Z,7.18
2022-10-18T21:21:44.903Z,7.16
2022-10-18T21:24:13.701Z,7.15
2022-10-18T21:26:41.969Z,7.14
2022-10-18T21:29:11.569Z,7.13
2022-10-18T21:31:41.695Z,7.11
2022-10-18T21:34:15.696Z,7.09
2022-10-18T21:36:47.269Z,7.06
2022-10-18T21:39:19.153Z,7.03
2022-10-18T21:41:47.831Z,7.00
2022-10-18T21:44:17.012Z,6.96
2022-10-18T21:46:47.037Z,6.93
2022-10-18T21:49:16.325Z,6.90
2022-10-18T21:51:44.602Z,6.86
2022-10-18T21:54:14.717Z,6.82
2022-10-18T21:56:43.614Z,6.79
2022-10-18T21:59:13.352Z,6.76
2022-10-18T22:01:44.193Z,6.71
2022-10-18T22:04:23.481Z,6.68
2022-10-18T22:06:52.012Z,6.65
2022-10-18T22:09:21.512Z,6.61
2022-10-18T22:11:53.316Z,6.56
2022-10-18T22:14:22.389Z,6.50
2022-10-18T22:16:51.332Z,6.47
2022-10-18T22:19:19.569Z,6.44
2022-10-18T22:21:47.767Z,6.41
2022-10-18T22:24:16.311Z,6.38
2022-10-18T22:26:45.771Z,6.35
2022-10-18T22:29:19.317Z,6.32
2022-10-18T22:31:53.289Z,6.29
2022-10-18T22:34:29.252Z,6.25
2022-10-18T22:36:57.253Z,6.23
2022-10-18T22:39:25.511Z,6.20
2022-10-18T22:41:56.463Z,6.16
2022-10-18T22:44:26.757Z,6.11
2022-10-18T22:46:54.804Z,6.09
2022-10-18T22:49:22.793Z,6.06
2022-10-18T22:51:50.762Z,6.03
2022-10-18T22:54:19.139Z,5.99
2022-10-18T22:56:47.007Z,5.96
2022-10-18T22:59:15.024Z,5.93
2022-10-18T23:01:42.896Z,5.91
2022-10-18T23:04:11.088Z,5.89
2022-10-18T23:06:40.214Z,5.86
2022-10-18T23:09:10.655Z,5.84
2022-10-18T23:11:38.531Z,5.82
2022-10-18T23:14:07.708Z,5.80
2022-10-18T23:16:36.294Z,5.78
2022-10-18T23:19:04.774Z,5.76
2022-10-18T23:21:34.352Z,5.74
2022-10-18T23:24:02.497Z,5.71
2022-10-18T23:26:30.818Z,5.69
2022-10-18T23:28:59.358Z,5.66
2022-10-18T23:31:30.672Z,5.64
2022-10-18T23:34:02.277Z,5.62
2022-10-18T23:36:32.751Z,5.59
2022-10-18T23:39:01.566Z,5.57
2022-10-18T23:41:29.830Z,5.57
2022-10-18T23:43:57.839Z,5.55
2022-10-18T23:46:26.035Z,5.54
2022-10-18T23:48:54.182Z,5.54
2022-10-18T23:51:22.306Z,5.55
2022-10-18T23:53:50.175Z,5.53
2022-10-18T23:56:18.144Z,5.51
2022-10-18T23:58:46.848Z,5.51
